sensor_id;sensor_type;location;lat;lon;timestamp;pressure;altitude;pressure_sealevel;temperature;humidity
6532;BME280;3299;42.004;24.868;2022-08-01T00:00:57;97935.59;;;25.13;52.01
6532;BME280;3299;42.004;24.868;2022-08-01T00:03:22;97927.41;;;25.14;51.37
6532;BME280;3299;42.004;24.868;2022-08-01T00:05:48;97943.94;;;25.03;51.96
6532;BME280;3299;42.004;24.868;2022-08-01T00:08:13;97919.50;;;25.01;51.40
6532;BME280;3299;42.004;24.868;2022-08-01T00:10:39;97934.34;;;25.09;49.95
6532;BME280;3299;42.004;24.868;2022-08-01T00:13:04;97935.31;;;25.34;48.24
6532;BME280;3299;42.004;24.868;2022-08-01T00:15:30;97931.88;;;25.33;50.11
6532;BME280;3299;42.004;24.868;2022-08-01T00:17:56;97932.03;;;25.38;48.99
6532;BME280;3299;42.004;24.868;2022-08-01T00:20:21;97927.75;;;25.44;47.99
6532;BME280;3299;42.004;24.868;2022-08-01T00:22:47;97922.91;;;25.28;48.46
6532;BME280;3299;42.004;24.868;2022-08-01T00:25:12;97923.31;;;25.31;47.89
6532;BME280;3299;42.004;24.868;2022-08-01T00:27:37;97922.44;;;25.50;47.40
6532;BME280;3299;42.004;24.868;2022-08-01T00:30:04;97923.41;;;25.56;47.15
6532;BME280;3299;42.004;24.868;2022-08-01T00:32:31;97924.00;;;25.64;47.42
6532;BME280;3299;42.004;24.868;2022-08-01T00:34:57;97925.78;;;25.77;47.64
6532;BME280;3299;42.004;24.868;2022-08-01T00:37:22;97923.06;;;25.83;47.34
6532;BME280;3299;42.004;24.868;2022-08-01T00:39:47;97920.03;;;25.80;47.50
6532;BME280;3299;42.004;24.868;2022-08-01T00:42:13;97921.44;;;25.82;47.46
6532;BME280;3299;42.004;24.868;2022-08-01T00:44:39;97910.44;;;25.85;47.99
6532;BME280;3299;42.004;24.868;2022-08-01T00:47:05;97914.38;;;25.70;48.60
6532;BME280;3299;42.004;24.868;2022-08-01T00:49:31;97923.16;;;25.70;48.77
6532;BME280;3299;42.004;24.868;2022-08-01T00:51:57;97933.56;;;25.65;49.29
6532;BME280;3299;42.004;24.868;2022-08-01T00:54:24;97922.97;;;25.65;49.25
6532;BME280;3299;42.004;24.868;2022-08-01T00:56:50;97927.69;;;25.63;49.32
6532;BME280;3299;42.004;24.868;2022-08-01T00:59:17;97922.13;;;25.71;49.34
6532;BME280;3299;42.004;24.868;2022-08-01T01:01:43;97932.13;;;25.69;48.96
6532;BME280;3299;42.004;24.868;2022-08-01T01:04:09;97919.06;;;25.74;48.42
6532;BME280;3299;42.004;24.868;2022-08-01T01:07:05;97934.13;;;25.80;48.21
6532;BME280;3299;42.004;24.868;2022-08-01T01:09:44;97934.56;;;25.71;48.37
6532;BME280;3299;42.004;24.868;2022-08-01T01:12:50;97937.66;;;25.61;48.48
6532;BME280;3299;42.004;24.868;2022-08-01T01:15:27;97929.28;;;25.64;47.93
6532;BME280;3299;42.004;24.868;2022-08-01T01:18:00;97932.19;;;25.56;47.92
6532;BME280;3299;42.004;24.868;2022-08-01T01:20:39;97941.59;;;25.52;47.80
6532;BME280;3299;42.004;24.868;2022-08-01T01:23:28;97937.91;;;25.47;48.21
6532;BME280;3299;42.004;24.868;2022-08-01T01:26:39;97937.75;;;25.42;48.26
6532;BME280;3299;42.004;24.868;2022-08-01T01:29:13;97930.47;;;25.24;48.45
6532;BME280;3299;42.004;24.868;2022-08-01T01:32:14;97937.38;;;25.25;48.36
6532;BME280;3299;42.004;24.868;2022-08-01T01:34:43;97939.22;;;25.18;48.72
6532;BME280;3299;42.004;24.868;2022-08-01T01:37:14;97939.66;;;25.15;48.64
6532;BME280;3299;42.004;24.868;2022-08-01T01:39:41;97935.75;;;25.18;48.71
6532;BME280;3299;42.004;24.868;2022-08-01T01:42:08;97939.81;;;25.20;48.61
6532;BME280;3299;42.004;24.868;2022-08-01T01:44:36;97942.88;;;25.24;48.41
6532;BME280;3299;42.004;24.868;2022-08-01T01:47:03;97925.81;;;25.00;49.01
6532;BME280;3299;42.004;24.868;2022-08-01T01:49:29;97928.63;;;25.12;48.53
6532;BME280;3299;42.004;24.868;2022-08-01T01:51:57;97927.06;;;24.91;49.74
6532;BME280;3299;42.004;24.868;2022-08-01T01:54:30;97933.75;;;25.00;49.20
6532;BME280;3299;42.004;24.868;2022-08-01T01:56:58;97933.13;;;25.11;48.19
6532;BME280;3299;42.004;24.868;2022-08-01T01:59:27;97938.63;;;25.10;48.26
6532;BME280;3299;42.004;24.868;2022-08-01T02:01:57;97933.97;;;25.05;48.83
6532;BME280;3299;42.004;24.868;2022-08-01T02:04:24;97931.72;;;25.02;48.69
6532;BME280;3299;42.004;24.868;2022-08-01T02:06:51;97935.38;;;25.08;48.19
6532;BME280;3299;42.004;24.868;2022-08-01T02:09:20;97941.47;;;25.08;48.42
6532;BME280;3299;42.004;24.868;2022-08-01T02:11:49;97939.06;;;25.07;48.29
6532;BME280;3299;42.004;24.868;2022-08-01T02:14:18;97944.16;;;25.02;48.91
6532;BME280;3299;42.004;24.868;2022-08-01T02:16:48;97938.47;;;24.98;48.47
6532;BME280;3299;42.004;24.868;2022-08-01T02:19:16;97941.50;;;24.95;48.84
6532;BME280;3299;42.004;24.868;2022-08-01T02:22:00;97930.97;;;24.69;50.09
6532;BME280;3299;42.004;24.868;2022-08-01T02:25:19;97935.63;;;24.67;50.26
6532;BME280;3299;42.004;24.868;2022-08-01T02:30:10;97923.19;;;24.74;49.89
6532;BME280;3299;42.004;24.868;2022-08-01T02:32:41;97930.56;;;24.79;49.31
6532;BME280;3299;42.004;24.868;2022-08-01T02:35:13;97929.31;;;24.88;48.64
6532;BME280;3299;42.004;24.868;2022-08-01T02:37:43;97928.09;;;24.84;49.25
6532;BME280;3299;42.004;24.868;2022-08-01T02:40:12;97925.63;;;24.89;48.56
6532;BME280;3299;42.004;24.868;2022-08-01T02:42:43;97931.75;;;24.89;48.58
6532;BME280;3299;42.004;24.868;2022-08-01T02:45:11;97927.72;;;24.80;49.12
6532;BME280;3299;42.004;24.868;2022-08-01T02:47:38;97915.06;;;24.56;49.72
6532;BME280;3299;42.004;24.868;2022-08-01T02:50:05;97919.53;;;24.56;49.93
6532;BME280;3299;42.004;24.868;2022-08-01T02:52:34;97916.91;;;24.36;50.23
6532;BME280;3299;42.004;24.868;2022-08-01T02:55:01;97908.94;;;24.30;48.29
6532;BME280;3299;42.004;24.868;2022-08-01T02:57:28;97911.00;;;24.34;49.11
6532;BME280;3299;42.004;24.868;2022-08-01T02:59:56;97925.03;;;24.35;49.22
6532;BME280;3299;42.004;24.868;2022-08-01T03:02:24;97919.13;;;24.39;44.49
6532;BME280;3299;42.004;24.868;2022-08-01T03:04:52;97914.88;;;24.45;43.73
6532;BME280;3299;42.004;24.868;2022-08-01T03:07:18;97925.44;;;24.45;43.22
6532;BME280;3299;42.004;24.868;2022-08-01T03:09:45;97924.63;;;24.51;42.30
6532;BME280;3299;42.004;24.868;2022-08-01T03:12:22;97913.63;;;24.41;43.30
6532;BME280;3299;42.004;24.868;2022-08-01T03:14:49;97907.13;;;24.30;43.17
6532;BME280;3299;42.004;24.868;2022-08-01T03:17:18;97920.16;;;24.38;41.29
6532;BME280;3299;42.004;24.868;2022-08-01T03:19:45;97921.19;;;24.44;41.20
6532;BME280;3299;42.004;24.868;2022-08-01T03:22:12;97924.59;;;24.25;41.77
6532;BME280;3299;42.004;24.868;2022-08-01T03:24:40;97915.25;;;24.29;42.15
6532;BME280;3299;42.004;24.868;2022-08-01T03:27:07;97927.06;;;24.20;42.68
6532;BME280;3299;42.004;24.868;2022-08-01T03:29:34;97923.41;;;24.27;42.56
6532;BME280;3299;42.004;24.868;2022-08-01T03:32:01;97922.41;;;24.28;43.02
6532;BME280;3299;42.004;24.868;2022-08-01T03:34:28;97926.03;;;24.27;43.29
6532;BME280;3299;42.004;24.868;2022-08-01T03:37:05;97930.09;;;24.30;43.58
6532;BME280;3299;42.004;24.868;2022-08-01T03:39:57;97919.34;;;24.31;44.47
6532;BME280;3299;42.004;24.868;2022-08-01T03:42:27;97915.28;;;24.35;44.10
6532;BME280;3299;42.004;24.868;2022-08-01T03:44:57;97914.06;;;24.38;44.73
6532;BME280;3299;42.004;24.868;2022-08-01T03:47:27;97921.38;;;24.55;44.66
6532;BME280;3299;42.004;24.868;2022-08-01T03:49:56;97918.97;;;24.60;44.53
6532;BME280;3299;42.004;24.868;2022-08-01T03:52:24;97920.97;;;24.52;44.68
6532;BME280;3299;42.004;24.868;2022-08-01T03:54:52;97917.31;;;24.46;45.46
6532;BME280;3299;42.004;24.868;2022-08-01T03:57:20;97922.59;;;24.46;45.00
6532;BME280;3299;42.004;24.868;2022-08-01T03:59:46;97923.66;;;24.58;43.98
6532;BME280;3299;42.004;24.868;2022-08-01T04:02:14;97920.56;;;24.61;43.12
6532;BME280;3299;42.004;24.868;2022-08-01T04:04:40;97916.91;;;24.62;43.53
6532;BME280;3299;42.004;24.868;2022-08-01T04:07:21;97903.69;;;24.56;42.33
6532;BME280;3299;42.004;24.868;2022-08-01T04:09:46;97916.91;;;24.75;41.63
6532;BME280;3299;42.004;24.868;2022-08-01T04:12:11;97929.69;;;24.91;39.73
6532;BME280;3299;42.004;24.868;2022-08-01T04:14:38;97922.97;;;24.89;40.19
6532;BME280;3299;42.004;24.868;2022-08-01T04:17:03;97917.69;;;24.89;40.42
6532;BME280;3299;42.004;24.868;2022-08-01T04:19:29;97910.34;;;24.97;39.96
6532;BME280;3299;42.004;24.868;2022-08-01T04:21:55;97930.09;;;25.01;39.00
6532;BME280;3299;42.004;24.868;2022-08-01T04:24:22;97914.41;;;25.13;38.86
6532;BME280;3299;42.004;24.868;2022-08-01T04:26:50;97920.09;;;25.16;38.64
6532;BME280;3299;42.004;24.868;2022-08-01T04:29:17;97930.88;;;25.28;37.46
6532;BME280;3299;42.004;24.868;2022-08-01T04:31:46;97919.47;;;25.27;37.55
6532;BME280;3299;42.004;24.868;2022-08-01T04:34:16;97927.56;;;25.32;37.82
6532;BME280;3299;42.004;24.868;2022-08-01T04:36:43;97928.38;;;25.39;37.42
6532;BME280;3299;42.004;24.868;2022-08-01T04:39:10;97927.09;;;25.55;36.31
6532;BME280;3299;42.004;24.868;2022-08-01T04:41:38;97917.28;;;25.55;36.23
6532;BME280;3299;42.004;24.868;2022-08-01T04:44:05;97930.13;;;25.58;36.24
6532;BME280;3299;42.004;24.868;2022-08-01T04:46:33;97930.31;;;25.63;35.99
6532;BME280;3299;42.004;24.868;2022-08-01T04:48:59;97930.50;;;25.68;36.43
6532;BME280;3299;42.004;24.868;2022-08-01T04:51:26;97921.09;;;25.72;35.87
6532;BME280;3299;42.004;24.868;2022-08-01T04:53:51;97932.50;;;25.79;35.81
6532;BME280;3299;42.004;24.868;2022-08-01T04:56:18;97930.00;;;25.84;36.07
6532;BME280;3299;42.004;24.868;2022-08-01T04:58:44;97926.69;;;25.95;35.03
6532;BME280;3299;42.004;24.868;2022-08-01T05:01:10;97918.53;;;25.97;35.52
6532;BME280;3299;42.004;24.868;2022-08-01T05:03:36;97928.69;;;26.06;35.78
6532;BME280;3299;42.004;24.868;2022-08-01T05:06:01;97924.00;;;26.08;35.54
6532;BME280;3299;42.004;24.868;2022-08-01T05:08:27;97924.13;;;26.13;35.11
6532;BME280;3299;42.004;24.868;2022-08-01T05:10:52;97930.06;;;26.15;35.07
6532;BME280;3299;42.004;24.868;2022-08-01T05:13:18;97926.56;;;26.15;35.10
6532;BME280;3299;42.004;24.868;2022-08-01T05:15:44;97923.28;;;26.19;34.79
6532;BME280;3299;42.004;24.868;2022-08-01T05:18:09;97914.72;;;26.17;35.59
6532;BME280;3299;42.004;24.868;2022-08-01T05:20:35;97908.34;;;26.25;35.79
6532;BME280;3299;42.004;24.868;2022-08-01T05:23:00;97920.94;;;26.36;35.21
6532;BME280;3299;42.004;24.868;2022-08-01T05:25:26;97907.16;;;26.45;35.13
6532;BME280;3299;42.004;24.868;2022-08-01T05:27:51;97919.75;;;26.56;34.71
6532;BME280;3299;42.004;24.868;2022-08-01T05:30:17;97926.03;;;26.62;33.88
6532;BME280;3299;42.004;24.868;2022-08-01T05:32:42;97928.91;;;26.60;33.05
6532;BME280;3299;42.004;24.868;2022-08-01T05:35:08;97926.25;;;26.60;33.65
6532;BME280;3299;42.004;24.868;2022-08-01T05:37:33;97920.56;;;26.57;34.10
6532;BME280;3299;42.004;24.868;2022-08-01T05:39:59;97926.66;;;26.64;34.47
6532;BME280;3299;42.004;24.868;2022-08-01T05:42:25;97924.53;;;26.72;35.31
6532;BME280;3299;42.004;24.868;2022-08-01T05:44:51;97931.91;;;26.88;35.38
6532;BME280;3299;42.004;24.868;2022-08-01T05:47:17;97934.66;;;26.82;35.57
6532;BME280;3299;42.004;24.868;2022-08-01T05:49:43;97939.28;;;26.86;35.43
6532;BME280;3299;42.004;24.868;2022-08-01T05:52:08;97934.88;;;26.98;35.71
6532;BME280;3299;42.004;24.868;2022-08-01T05:54:34;97931.94;;;27.06;35.01
6532;BME280;3299;42.004;24.868;2022-08-01T05:56:59;97930.84;;;27.14;34.51
6532;BME280;3299;42.004;24.868;2022-08-01T05:59:27;97925.03;;;27.23;34.17
6532;BME280;3299;42.004;24.868;2022-08-01T06:01:53;97931.84;;;27.19;31.94
6532;BME280;3299;42.004;24.868;2022-08-01T06:04:18;97929.44;;;27.11;32.54
6532;BME280;3299;42.004;24.868;2022-08-01T06:06:43;97938.13;;;27.00;33.25
6532;BME280;3299;42.004;24.868;2022-08-01T06:09:09;97943.06;;;26.97;33.00
6532;BME280;3299;42.004;24.868;2022-08-01T06:11:34;97930.31;;;27.05;33.01
6532;BME280;3299;42.004;24.868;2022-08-01T06:14:00;97934.31;;;27.14;32.80
6532;BME280;3299;42.004;24.868;2022-08-01T06:16:25;97924.72;;;27.13;32.96
6532;BME280;3299;42.004;24.868;2022-08-01T06:18:50;97936.69;;;27.22;32.46
6532;BME280;3299;42.004;24.868;2022-08-01T06:21:16;97923.25;;;27.17;32.49
6532;BME280;3299;42.004;24.868;2022-08-01T06:23:41;97919.50;;;27.25;32.42
6532;BME280;3299;42.004;24.868;2022-08-01T06:26:07;97919.06;;;27.28;33.38
6532;BME280;3299;42.004;24.868;2022-08-01T06:28:33;97917.00;;;27.30;32.34
6532;BME280;3299;42.004;24.868;2022-08-01T06:30:59;97909.53;;;27.38;32.58
6532;BME280;3299;42.004;24.868;2022-08-01T06:33:25;97917.72;;;27.37;32.35
6532;BME280;3299;42.004;24.868;2022-08-01T06:35:50;97924.22;;;27.41;32.05
6532;BME280;3299;42.004;24.868;2022-08-01T06:38:16;97923.88;;;27.37;32.13
6532;BME280;3299;42.004;24.868;2022-08-01T06:40:41;97912.63;;;27.17;32.13
6532;BME280;3299;42.004;24.868;2022-08-01T06:43:07;97919.56;;;27.18;32.25
6532;BME280;3299;42.004;24.868;2022-08-01T06:45:32;97914.69;;;27.15;32.63
6532;BME280;3299;42.004;24.868;2022-08-01T06:47:58;97924.13;;;27.11;32.28
6532;BME280;3299;42.004;24.868;2022-08-01T06:50:23;97920.94;;;27.03;32.33
6532;BME280;3299;42.004;24.868;2022-08-01T06:52:49;97917.19;;;27.10;32.29
6532;BME280;3299;42.004;24.868;2022-08-01T06:55:14;97902.88;;;27.11;33.04
6532;BME280;3299;42.004;24.868;2022-08-01T06:57:52;97902.44;;;27.14;32.93
6532;BME280;3299;42.004;24.868;2022-08-01T07:00:20;97914.41;;;27.23;32.58
6532;BME280;3299;42.004;24.868;2022-08-01T07:02:48;97916.53;;;27.33;33.18
6532;BME280;3299;42.004;24.868;2022-08-01T07:05:14;97909.59;;;27.32;32.33
6532;BME280;3299;42.004;24.868;2022-08-01T07:07:39;97920.59;;;27.35;32.72
6532;BME280;3299;42.004;24.868;2022-08-01T07:10:05;97901.84;;;27.48;32.50
6532;BME280;3299;42.004;24.868;2022-08-01T07:12:31;97898.38;;;27.48;31.94
6532;BME280;3299;42.004;24.868;2022-08-01T07:14:58;97910.63;;;27.49;32.08
6532;BME280;3299;42.004;24.868;2022-08-01T07:17:23;97907.19;;;27.48;32.59
6532;BME280;3299;42.004;24.868;2022-08-01T07:19:49;97904.50;;;27.48;32.33
6532;BME280;3299;42.004;24.868;2022-08-01T07:22:14;97922.81;;;27.56;31.93
6532;BME280;3299;42.004;24.868;2022-08-01T07:24:40;97911.34;;;27.56;32.02
6532;BME280;3299;42.004;24.868;2022-08-01T07:27:07;97907.44;;;27.58;32.13
6532;BME280;3299;42.004;24.868;2022-08-01T07:29:32;97916.59;;;27.62;31.89
6532;BME280;3299;42.004;24.868;2022-08-01T07:31:57;97900.50;;;27.57;32.17
6532;BME280;3299;42.004;24.868;2022-08-01T07:34:24;97900.19;;;27.65;31.90
6532;BME280;3299;42.004;24.868;2022-08-01T07:36:50;97892.47;;;27.75;32.03
6532;BME280;3299;42.004;24.868;2022-08-01T07:39:16;97900.91;;;27.72;31.84
6532;BME280;3299;42.004;24.868;2022-08-01T07:41:41;97891.44;;;27.76;32.38
6532;BME280;3299;42.004;24.868;2022-08-01T07:44:06;97899.41;;;27.76;32.22
6532;BME280;3299;42.004;24.868;2022-08-01T07:46:32;97890.03;;;27.74;32.06
6532;BME280;3299;42.004;24.868;2022-08-01T07:48:57;97894.34;;;27.75;32.23
6532;BME280;3299;42.004;24.868;2022-08-01T07:51:23;97899.81;;;27.80;32.75
6532;BME280;3299;42.004;24.868;2022-08-01T07:53:48;97896.56;;;27.78;32.54
6532;BME280;3299;42.004;24.868;2022-08-01T07:56:14;97909.06;;;27.77;32.65
6532;BME280;3299;42.004;24.868;2022-08-01T07:58:39;97896.75;;;27.76;32.70
6532;BME280;3299;42.004;24.868;2022-08-01T08:01:05;97888.59;;;27.78;33.00
6532;BME280;3299;42.004;24.868;2022-08-01T08:03:30;97888.94;;;27.81;32.79
6532;BME280;3299;42.004;24.868;2022-08-01T08:05:56;97890.88;;;27.74;32.98
6532;BME280;3299;42.004;24.868;2022-08-01T08:08:21;97878.03;;;27.71;33.09
6532;BME280;3299;42.004;24.868;2022-08-01T08:10:47;97879.41;;;27.74;33.60
6532;BME280;3299;42.004;24.868;2022-08-01T08:13:12;97883.31;;;27.89;33.41
6532;BME280;3299;42.004;24.868;2022-08-01T08:15:38;97886.22;;;27.99;33.34
6532;BME280;3299;42.004;24.868;2022-08-01T08:18:04;97892.38;;;28.11;32.97
6532;BME280;3299;42.004;24.868;2022-08-01T08:20:29;97881.16;;;28.09;32.82
6532;BME280;3299;42.004;24.868;2022-08-01T08:22:55;97894.03;;;28.12;32.44
6532;BME280;3299;42.004;24.868;2022-08-01T08:25:23;97884.53;;;28.16;32.72
6532;BME280;3299;42.004;24.868;2022-08-01T08:27:49;97875.19;;;28.25;32.25
6532;BME280;3299;42.004;24.868;2022-08-01T08:30:15;97869.38;;;28.17;32.32
6532;BME280;3299;42.004;24.868;2022-08-01T08:32:41;97865.91;;;28.16;32.80
6532;BME280;3299;42.004;24.868;2022-08-01T08:35:07;97863.50;;;28.26;33.42
6532;BME280;3299;42.004;24.868;2022-08-01T08:37:36;97867.59;;;28.40;32.59
6532;BME280;3299;42.004;24.868;2022-08-01T08:40:03;97876.63;;;28.51;32.96
6532;BME280;3299;42.004;24.868;2022-08-01T08:42:29;97872.38;;;28.50;32.34
6532;BME280;3299;42.004;24.868;2022-08-01T08:44:55;97880.09;;;28.51;32.64
6532;BME280;3299;42.004;24.868;2022-08-01T08:47:22;97864.59;;;28.60;31.86
6532;BME280;3299;42.004;24.868;2022-08-01T08:49:53;97861.00;;;28.66;32.22
6532;BME280;3299;42.004;24.868;2022-08-01T08:52:20;97849.56;;;28.65;32.29
6532;BME280;3299;42.004;24.868;2022-08-01T08:54:47;97852.78;;;28.67;32.22
6532;BME280;3299;42.004;24.868;2022-08-01T08:57:14;97862.03;;;28.65;32.71
6532;BME280;3299;42.004;24.868;2022-08-01T08:59:42;97857.28;;;28.67;32.01
6532;BME280;3299;42.004;24.868;2022-08-01T09:02:08;97856.94;;;28.63;32.28
6532;BME280;3299;42.004;24.868;2022-08-01T09:04:35;97832.75;;;28.65;32.93
6532;BME280;3299;42.004;24.868;2022-08-01T09:07:01;97844.22;;;28.65;32.61
6532;BME280;3299;42.004;24.868;2022-08-01T09:09:26;97851.03;;;28.73;32.10
6532;BME280;3299;42.004;24.868;2022-08-01T09:11:54;97851.84;;;28.73;32.11
6532;BME280;3299;42.004;24.868;2022-08-01T09:14:19;97841.66;;;28.59;32.28
6532;BME280;3299;42.004;24.868;2022-08-01T09:17:11;97826.25;;;28.61;32.94
6532;BME280;3299;42.004;24.868;2022-08-01T09:19:40;97822.00;;;28.71;33.00
6532;BME280;3299;42.004;24.868;2022-08-01T09:22:07;97845.25;;;28.76;32.32
6532;BME280;3299;42.004;24.868;2022-08-01T09:24:34;97841.53;;;28.77;32.08
6532;BME280;3299;42.004;24.868;2022-08-01T09:27:01;97837.16;;;28.82;32.45
6532;BME280;3299;42.004;24.868;2022-08-01T09:29:30;97823.34;;;28.85;32.41
6532;BME280;3299;42.004;24.868;2022-08-01T09:32:04;97821.25;;;28.87;32.79
6532;BME280;3299;42.004;24.868;2022-08-01T09:34:30;97818.72;;;28.81;32.67
6532;BME280;3299;42.004;24.868;2022-08-01T09:37:01;97825.78;;;28.87;32.49
6532;BME280;3299;42.004;24.868;2022-08-01T09:39:27;97822.09;;;28.99;33.01
6532;BME280;3299;42.004;24.868;2022-08-01T09:41:56;97811.38;;;29.11;32.58
6532;BME280;3299;42.004;24.868;2022-08-01T09:44:39;97797.34;;;29.15;32.22
6532;BME280;3299;42.004;24.868;2022-08-01T09:47:05;97814.34;;;29.26;32.54
6532;BME280;3299;42.004;24.868;2022-08-01T09:49:32;97816.50;;;29.40;32.72
6532;BME280;3299;42.004;24.868;2022-08-01T09:52:10;97827.06;;;29.35;31.77
6532;BME280;3299;42.004;24.868;2022-08-01T09:54:36;97809.91;;;29.43;32.15
6532;BME280;3299;42.004;24.868;2022-08-01T09:57:15;97818.56;;;29.50;32.08
6532;BME280;3299;42.004;24.868;2022-08-01T09:59:46;97819.47;;;29.55;31.92
6532;BME280;3299;42.004;24.868;2022-08-01T10:02:14;97805.22;;;29.50;31.89
6532;BME280;3299;42.004;24.868;2022-08-01T10:04:50;97815.75;;;29.56;32.49
6532;BME280;3299;42.004;24.868;2022-08-01T10:07:17;97802.84;;;29.65;32.24
6532;BME280;3299;42.004;24.868;2022-08-01T10:09:44;97811.25;;;29.73;32.35
6532;BME280;3299;42.004;24.868;2022-08-01T10:12:12;97815.16;;;29.82;31.61
6532;BME280;3299;42.004;24.868;2022-08-01T10:14:39;97820.69;;;29.92;32.13
6532;BME280;3299;42.004;24.868;2022-08-01T10:17:08;97822.63;;;29.97;31.34
6532;BME280;3299;42.004;24.868;2022-08-01T10:19:34;97810.16;;;30.02;31.54
6532;BME280;3299;42.004;24.868;2022-08-01T10:22:01;97815.53;;;30.19;32.11
6532;BME280;3299;42.004;24.868;2022-08-01T10:24:30;97822.97;;;30.17;31.04
6532;BME280;3299;42.004;24.868;2022-08-01T10:27:04;97812.59;;;30.20;31.03
6532;BME280;3299;42.004;24.868;2022-08-01T10:29:35;97803.63;;;30.26;30.99
6532;BME280;3299;42.004;24.868;2022-08-01T10:32:04;97825.06;;;30.31;30.96
6532;BME280;3299;42.004;24.868;2022-08-01T10:34:30;97814.06;;;30.28;30.57
6532;BME280;3299;42.004;24.868;2022-08-01T10:36:57;97819.31;;;30.39;31.00
6532;BME280;3299;42.004;24.868;2022-08-01T10:39:22;97814.09;;;30.49;31.11
6532;BME280;3299;42.004;24.868;2022-08-01T10:41:48;97797.69;;;30.57;31.12
6532;BME280;3299;42.004;24.868;2022-08-01T10:44:15;97803.25;;;30.72;30.28
6532;BME280;3299;42.004;24.868;2022-08-01T10:46:46;97817.31;;;30.84;30.45
6532;BME280;3299;42.004;24.868;2022-08-01T10:49:15;97812.47;;;31.03;29.81
6532;BME280;3299;42.004;24.868;2022-08-01T10:51:42;97830.72;;;31.27;29.48
6532;BME280;3299;42.004;24.868;2022-08-01T10:54:09;97826.44;;;31.26;29.27
6532;BME280;3299;42.004;24.868;2022-08-01T10:56:46;97815.59;;;31.38;29.30
6532;BME280;3299;42.004;24.868;2022-08-01T10:59:28;97823.25;;;31.56;29.27
6532;BME280;3299;42.004;24.868;2022-08-01T11:01:58;97824.81;;;31.73;29.57
6532;BME280;3299;42.004;24.868;2022-08-01T11:04:58;97819.69;;;31.98;29.08
6532;BME280;3299;42.004;24.868;2022-08-01T11:07:42;97834.19;;;32.02;28.09
6532;BME280;3299;42.004;24.868;2022-08-01T11:10:15;97822.16;;;32.05;28.40
6532;BME280;3299;42.004;24.868;2022-08-01T11:12:42;97823.63;;;32.22;28.81
6532;BME280;3299;42.004;24.868;2022-08-01T11:30:45;97809.78;;;32.72;27.87
6532;BME280;3299;42.004;24.868;2022-08-01T11:33:12;97812.41;;;32.62;27.56
6532;BME280;3299;42.004;24.868;2022-08-01T11:44:05;97811.66;;;33.18;26.54
6532;BME280;3299;42.004;24.868;2022-08-01T11:49:27;97802.88;;;33.37;26.01
6532;BME280;3299;42.004;24.868;2022-08-01T11:54:52;97805.06;;;33.55;25.88
6532;BME280;3299;42.004;24.868;2022-08-01T11:57:19;97811.53;;;33.54;25.84
6532;BME280;3299;42.004;24.868;2022-08-01T11:59:47;97805.91;;;33.71;25.81
6532;BME280;3299;42.004;24.868;2022-08-01T12:04:53;97801.91;;;33.78;25.91
6532;BME280;3299;42.004;24.868;2022-08-01T12:07:20;97796.00;;;33.91;26.06
6532;BME280;3299;42.004;24.868;2022-08-01T12:09:46;97794.13;;;34.02;25.60
6532;BME280;3299;42.004;24.868;2022-08-01T12:12:15;97794.41;;;34.20;25.53
6532;BME280;3299;42.004;24.868;2022-08-01T12:14:53;97801.38;;;34.21;25.73
6532;BME280;3299;42.004;24.868;2022-08-01T12:17:20;97798.69;;;34.21;25.18
6532;BME280;3299;42.004;24.868;2022-08-01T12:19:52;97795.22;;;34.31;25.26
6532;BME280;3299;42.004;24.868;2022-08-01T12:22:21;97813.50;;;34.34;25.28
6532;BME280;3299;42.004;24.868;2022-08-01T12:24:47;97806.78;;;34.31;25.28
6532;BME280;3299;42.004;24.868;2022-08-01T12:27:30;97790.38;;;34.18;24.94
6532;BME280;3299;42.004;24.868;2022-08-01T12:29:58;97799.50;;;34.37;24.88
6532;BME280;3299;42.004;24.868;2022-08-01T12:32:31;97793.84;;;34.53;24.61
6532;BME280;3299;42.004;24.868;2022-08-01T12:35:10;97795.97;;;34.61;24.57
6532;BME280;3299;42.004;24.868;2022-08-01T12:37:44;97792.19;;;34.72;24.26
6532;BME280;3299;42.004;24.868;2022-08-01T12:42:45;97804.56;;;34.63;24.44
6532;BME280;3299;42.004;24.868;2022-08-01T12:45:13;97793.78;;;34.68;23.80
6532;BME280;3299;42.004;24.868;2022-08-01T12:47:39;97793.22;;;34.86;23.80
6532;BME280;3299;42.004;24.868;2022-08-01T12:50:07;97787.88;;;34.81;24.07
6532;BME280;3299;42.004;24.868;2022-08-01T12:52:33;97777.56;;;34.98;23.53
6532;BME280;3299;42.004;24.868;2022-08-01T12:55:16;97780.84;;;34.95;23.49
6532;BME280;3299;42.004;24.868;2022-08-01T12:57:48;97785.00;;;35.21;23.89
6532;BME280;3299;42.004;24.868;2022-08-01T13:00:23;97772.00;;;35.43;23.37
6532;BME280;3299;42.004;24.868;2022-08-01T13:02:58;97792.56;;;35.73;22.74
6532;BME280;3299;42.004;24.868;2022-08-01T13:05:24;97786.78;;;35.89;22.36
6532;BME280;3299;42.004;24.868;2022-08-01T13:07:50;97783.41;;;36.07;22.48
6532;BME280;3299;42.004;24.868;2022-08-01T13:10:27;97776.59;;;36.20;22.39
6532;BME280;3299;42.004;24.868;2022-08-01T13:12:55;97777.88;;;36.27;22.24
6532;BME280;3299;42.004;24.868;2022-08-01T13:17:47;97790.66;;;36.69;21.84
6532;BME280;3299;42.004;24.868;2022-08-01T13:22:52;97786.66;;;36.90;21.45
6532;BME280;3299;42.004;24.868;2022-08-01T13:25:17;97787.84;;;36.79;21.65
6532;BME280;3299;42.004;24.868;2022-08-01T13:27:43;97789.25;;;36.48;21.96
6532;BME280;3299;42.004;24.868;2022-08-01T13:30:17;97771.34;;;36.33;21.81
6532;BME280;3299;42.004;24.868;2022-08-01T13:32:57;97779.38;;;36.38;21.84
6532;BME280;3299;42.004;24.868;2022-08-01T13:35:23;97767.09;;;36.27;21.82
6532;BME280;3299;42.004;24.868;2022-08-01T13:37:48;97772.84;;;36.44;22.21
6532;BME280;3299;42.004;24.868;2022-08-01T13:40:26;97773.31;;;36.51;22.13
6532;BME280;3299;42.004;24.868;2022-08-01T13:42:51;97760.03;;;36.31;22.55
6532;BME280;3299;42.004;24.868;2022-08-01T13:45:17;97765.28;;;36.46;22.70
6532;BME280;3299;42.004;24.868;2022-08-01T13:47:44;97767.25;;;36.88;22.58
6532;BME280;3299;42.004;24.868;2022-08-01T13:50:09;97768.34;;;37.10;21.82
6532;BME280;3299;42.004;24.868;2022-08-01T13:52:35;97765.97;;;37.27;21.45
6532;BME280;3299;42.004;24.868;2022-08-01T13:55:00;97761.84;;;37.48;21.90
6532;BME280;3299;42.004;24.868;2022-08-01T13:57:26;97770.81;;;37.67;21.52
6532;BME280;3299;42.004;24.868;2022-08-01T13:59:52;97760.50;;;37.69;21.35